Jharsuguda, India
Current Conditions -  °F | °C
As of 2:30 PM on Tuesday 27 Jan 2015 (Local Time) from VIBN Reporting Station
Haze Haze  
Wind Chill: 64°   Ceiling: 9000
Heat Index: 64°   Visibility: 1.2mi
Dew Point: 61°   Wind: 1mph
Humidity: 88%   Direction: 330°NNW
Pressure: 30"   Gusts: NA
Location:  21.86°N, 84.02°E
Report Text: VIBN 270930Z 33001KT 2000 BR SCT020 BKN090 18/16 Q1016
Loading
Personal Weather Stations






























Interactive Weather Map New forecast layout! Learn more

10-Day Weather Forecast

Advertisements
Track Severe Weather on mobile